Hamburg, Michigan
Current Conditions -  °F | °C
As of 4:35 PM on Friday 28 Nov 2014 (Local Time) from KOZW Reporting Station
Light Snow Light Snow  
Wind Chill: 15°   Ceiling: 2800
Heat Index: 24°   Visibility: 3mi
Dew Point: 21°   Wind: 8mph
Humidity: 87%   Direction: 150°SSE
Pressure: 30.13"   Gusts: NA
Location:  42.45°N, 83.8°W
Report Text: KOZW 282135Z AUTO 15007KT 3SM -SN SCT016 BKN028 OVC075 M04/M06 A3013 RMK AO2 T10451063
Loading
Personal Weather Stations






























Interactive Weather Map New forecast layout! Learn more

10-Day Weather Forecast

Advertisements
Track Severe Weather on mobile